sensor_id;sensor_type;location;lat;lon;timestamp;temperature;humidity
22878;DHT22;11606;45.404;12.148;2022-07-17T00:01:05;26.90;99.90
22878;DHT22;11606;45.404;12.148;2022-07-17T00:03:31;26.80;99.90
22878;DHT22;11606;45.404;12.148;2022-07-17T00:05:57;26.80;99.90
22878;DHT22;11606;45.404;12.148;2022-07-17T00:08:23;26.80;99.90
22878;DHT22;11606;45.404;12.148;2022-07-17T00:10:49;26.80;99.90
22878;DHT22;11606;45.404;12.148;2022-07-17T00:13:15;26.80;99.90
22878;DHT22;11606;45.404;12.148;2022-07-17T00:15:41;26.70;99.90
22878;DHT22;11606;45.404;12.148;2022-07-17T00:18:07;26.70;99.90
22878;DHT22;11606;45.404;12.148;2022-07-17T00:20:34;26.80;99.90
22878;DHT22;11606;45.404;12.148;2022-07-17T00:23:00;26.80;99.90
22878;DHT22;11606;45.404;12.148;2022-07-17T00:25:25;26.80;99.90
22878;DHT22;11606;45.404;12.148;2022-07-17T00:27:51;26.90;99.90
22878;DHT22;11606;45.404;12.148;2022-07-17T00:30:17;26.90;99.90
22878;DHT22;11606;45.404;12.148;2022-07-17T00:32:44;27.00;99.90
22878;DHT22;11606;45.404;12.148;2022-07-17T00:35:11;27.00;99.90
22878;DHT22;11606;45.404;12.148;2022-07-17T00:37:45;27.00;99.90
22878;DHT22;11606;45.404;12.148;2022-07-17T00:40:14;27.10;99.90
22878;DHT22;11606;45.404;12.148;2022-07-17T00:42:42;27.00;99.90
22878;DHT22;11606;45.404;12.148;2022-07-17T00:45:09;27.00;99.90
22878;DHT22;11606;45.404;12.148;2022-07-17T00:48:07;27.00;99.90
22878;DHT22;11606;45.404;12.148;2022-07-17T00:50:37;27.10;99.90
22878;DHT22;11606;45.404;12.148;2022-07-17T00:53:04;27.00;99.90
22878;DHT22;11606;45.404;12.148;2022-07-17T00:55:30;27.00;99.90
22878;DHT22;11606;45.404;12.148;2022-07-17T00:57:57;27.00;99.90
22878;DHT22;11606;45.404;12.148;2022-07-17T01:00:25;27.00;99.90
22878;DHT22;11606;45.404;12.148;2022-07-17T01:02:53;27.10;99.90
22878;DHT22;11606;45.404;12.148;2022-07-17T01:05:20;27.10;99.90
22878;DHT22;11606;45.404;12.148;2022-07-17T01:07:47;27.10;99.90
22878;DHT22;11606;45.404;12.148;2022-07-17T01:10:15;27.10;99.90
22878;DHT22;11606;45.404;12.148;2022-07-17T01:12:42;27.10;99.90
22878;DHT22;11606;45.404;12.148;2022-07-17T01:15:09;27.10;99.90
22878;DHT22;11606;45.404;12.148;2022-07-17T01:17:36;27.10;99.90
22878;DHT22;11606;45.404;12.148;2022-07-17T01:20:06;27.10;99.90
22878;DHT22;11606;45.404;12.148;2022-07-17T01:22:38;27.10;99.90
22878;DHT22;11606;45.404;12.148;2022-07-17T01:25:04;27.10;99.90
22878;DHT22;11606;45.404;12.148;2022-07-17T01:27:30;27.10;99.90
22878;DHT22;11606;45.404;12.148;2022-07-17T01:29:56;27.20;99.90
22878;DHT22;11606;45.404;12.148;2022-07-17T01:32:40;27.10;99.90
22878;DHT22;11606;45.404;12.148;2022-07-17T01:35:07;27.20;99.90
22878;DHT22;11606;45.404;12.148;2022-07-17T01:37:34;27.20;99.90
22878;DHT22;11606;45.404;12.148;2022-07-17T01:40:00;27.20;99.90
22878;DHT22;11606;45.404;12.148;2022-07-17T01:42:27;27.20;99.90
22878;DHT22;11606;45.404;12.148;2022-07-17T01:44:53;27.10;99.90
22878;DHT22;11606;45.404;12.148;2022-07-17T01:47:20;27.10;99.90
22878;DHT22;11606;45.404;12.148;2022-07-17T01:49:47;27.10;99.90
22878;DHT22;11606;45.404;12.148;2022-07-17T01:52:14;27.00;99.90
22878;DHT22;11606;45.404;12.148;2022-07-17T01:54:41;27.00;99.90
22878;DHT22;11606;45.404;12.148;2022-07-17T01:57:07;27.00;99.90
22878;DHT22;11606;45.404;12.148;2022-07-17T01:59:33;27.00;99.90
22878;DHT22;11606;45.404;12.148;2022-07-17T07:51:20;31.10;78.00
22878;DHT22;11606;45.404;12.148;2022-07-17T07:53:47;31.00;79.00
22878;DHT22;11606;45.404;12.148;2022-07-17T07:56:12;31.10;78.40
22878;DHT22;11606;45.404;12.148;2022-07-17T07:58:38;31.10;78.60
22878;DHT22;11606;45.404;12.148;2022-07-17T08:01:04;31.20;78.10
22878;DHT22;11606;45.404;12.148;2022-07-17T08:03:30;31.30;78.00
22878;DHT22;11606;45.404;12.148;2022-07-17T08:05:56;31.30;77.50
22878;DHT22;11606;45.404;12.148;2022-07-17T08:08:22;31.50;77.00
22878;DHT22;11606;45.404;12.148;2022-07-17T08:10:48;31.40;76.80
22878;DHT22;11606;45.404;12.148;2022-07-17T08:13:14;31.40;76.80
22878;DHT22;11606;45.404;12.148;2022-07-17T08:15:43;31.40;76.30
22878;DHT22;11606;45.404;12.148;2022-07-17T08:18:11;31.50;76.80
22878;DHT22;11606;45.404;12.148;2022-07-17T08:20:41;31.50;75.50
22878;DHT22;11606;45.404;12.148;2022-07-17T08:23:08;31.40;75.60
22878;DHT22;11606;45.404;12.148;2022-07-17T08:25:35;31.40;75.60
22878;DHT22;11606;45.404;12.148;2022-07-17T08:28:01;31.50;75.90
22878;DHT22;11606;45.404;12.148;2022-07-17T08:30:27;31.70;75.80
22878;DHT22;11606;45.404;12.148;2022-07-17T08:32:53;31.60;75.40
22878;DHT22;11606;45.404;12.148;2022-07-17T08:35:19;31.80;75.50
22878;DHT22;11606;45.404;12.148;2022-07-17T08:37:55;31.90;75.60
22878;DHT22;11606;45.404;12.148;2022-07-17T08:40:34;31.90;76.10
22878;DHT22;11606;45.404;12.148;2022-07-17T08:43:04;32.00;75.50
22878;DHT22;11606;45.404;12.148;2022-07-17T08:45:31;31.80;75.20
22878;DHT22;11606;45.404;12.148;2022-07-17T08:47:57;31.70;75.00
22878;DHT22;11606;45.404;12.148;2022-07-17T08:50:32;31.70;74.20
22878;DHT22;11606;45.404;12.148;2022-07-17T08:52:58;31.80;74.40
22878;DHT22;11606;45.404;12.148;2022-07-17T08:55:25;31.70;73.90
22878;DHT22;11606;45.404;12.148;2022-07-17T08:57:51;31.90;74.10
22878;DHT22;11606;45.404;12.148;2022-07-17T09:00:19;32.30;74.60
22878;DHT22;11606;45.404;12.148;2022-07-17T09:03:07;32.40;73.20
22878;DHT22;11606;45.404;12.148;2022-07-17T09:05:35;32.30;72.80
22878;DHT22;11606;45.404;12.148;2022-07-17T09:08:03;32.20;71.30
22878;DHT22;11606;45.404;12.148;2022-07-17T09:13:00;32.30;70.30
22878;DHT22;11606;45.404;12.148;2022-07-17T09:15:27;32.40;71.80
22878;DHT22;11606;45.404;12.148;2022-07-17T09:17:55;32.40;72.30
22878;DHT22;11606;45.404;12.148;2022-07-17T09:20:22;32.30;71.30
22878;DHT22;11606;45.404;12.148;2022-07-17T09:23:00;32.50;70.90
22878;DHT22;11606;45.404;12.148;2022-07-17T09:25:41;32.90;69.50
22878;DHT22;11606;45.404;12.148;2022-07-17T09:28:10;33.00;69.00
22878;DHT22;11606;45.404;12.148;2022-07-17T09:30:39;33.00;69.60
22878;DHT22;11606;45.404;12.148;2022-07-17T09:33:07;33.10;69.90
22878;DHT22;11606;45.404;12.148;2022-07-17T09:35:34;33.50;70.40
22878;DHT22;11606;45.404;12.148;2022-07-17T09:38:00;33.50;70.10
22878;DHT22;11606;45.404;12.148;2022-07-17T09:40:26;33.60;69.30
22878;DHT22;11606;45.404;12.148;2022-07-17T09:43:10;33.80;69.60
22878;DHT22;11606;45.404;12.148;2022-07-17T09:45:36;33.90;68.70
22878;DHT22;11606;45.404;12.148;2022-07-17T09:48:03;33.90;68.50
22878;DHT22;11606;45.404;12.148;2022-07-17T09:50:29;34.10;68.70
22878;DHT22;11606;45.404;12.148;2022-07-17T09:52:56;34.00;67.80
22878;DHT22;11606;45.404;12.148;2022-07-17T09:55:28;33.90;67.20
22878;DHT22;11606;45.404;12.148;2022-07-17T09:57:55;33.90;67.20
22878;DHT22;11606;45.404;12.148;2022-07-17T10:00:22;34.00;67.30
22878;DHT22;11606;45.404;12.148;2022-07-17T10:02:51;34.20;66.90
22878;DHT22;11606;45.404;12.148;2022-07-17T10:05:18;34.30;67.10
22878;DHT22;11606;45.404;12.148;2022-07-17T10:07:45;34.70;67.20
22878;DHT22;11606;45.404;12.148;2022-07-17T10:10:13;34.90;65.50
22878;DHT22;11606;45.404;12.148;2022-07-17T10:12:41;34.80;66.90
22878;DHT22;11606;45.404;12.148;2022-07-17T10:15:08;34.90;66.40
22878;DHT22;11606;45.404;12.148;2022-07-17T10:17:34;35.20;66.60
22878;DHT22;11606;45.404;12.148;2022-07-17T10:20:00;35.10;66.20
22878;DHT22;11606;45.404;12.148;2022-07-17T10:22:26;35.00;64.40
22878;DHT22;11606;45.404;12.148;2022-07-17T10:24:56;35.10;66.40
22878;DHT22;11606;45.404;12.148;2022-07-17T10:27:24;34.70;65.70
22878;DHT22;11606;45.404;12.148;2022-07-17T10:32:30;35.10;65.00
22878;DHT22;11606;45.404;12.148;2022-07-17T10:35:03;35.20;64.80
22878;DHT22;11606;45.404;12.148;2022-07-17T10:42:55;35.10;68.30
22878;DHT22;11606;45.404;12.148;2022-07-17T10:45:31;34.60;68.20
22878;DHT22;11606;45.404;12.148;2022-07-17T10:48:07;34.90;69.60
22878;DHT22;11606;45.404;12.148;2022-07-17T10:50:51;35.10;68.90
22878;DHT22;11606;45.404;12.148;2022-07-17T10:53:22;35.20;68.80
22878;DHT22;11606;45.404;12.148;2022-07-17T10:55:53;35.00;69.50
22878;DHT22;11606;45.404;12.148;2022-07-17T10:58:29;34.70;69.10
22878;DHT22;11606;45.404;12.148;2022-07-17T11:03:55;33.60;71.20
22878;DHT22;11606;45.404;12.148;2022-07-17T11:06:26;33.40;73.00
22878;DHT22;11606;45.404;12.148;2022-07-17T11:11:57;33.00;72.30
22878;DHT22;11606;45.404;12.148;2022-07-17T11:14:25;32.80;72.80
22878;DHT22;11606;45.404;12.148;2022-07-17T11:16:56;32.60;72.70
22878;DHT22;11606;45.404;12.148;2022-07-17T11:19:35;32.50;73.30
22878;DHT22;11606;45.404;12.148;2022-07-17T11:22:05;32.40;73.80
22878;DHT22;11606;45.404;12.148;2022-07-17T11:24:39;32.20;73.90
22878;DHT22;11606;45.404;12.148;2022-07-17T11:27:05;32.10;76.70
22878;DHT22;11606;45.404;12.148;2022-07-17T11:29:40;32.20;75.00
22878;DHT22;11606;45.404;12.148;2022-07-17T11:32:07;32.10;72.50
22878;DHT22;11606;45.404;12.148;2022-07-17T11:34:33;32.00;73.20
22878;DHT22;11606;45.404;12.148;2022-07-17T11:37:04;31.90;73.60
22878;DHT22;11606;45.404;12.148;2022-07-17T11:39:49;31.70;75.80
22878;DHT22;11606;45.404;12.148;2022-07-17T11:42:17;31.60;74.40
22878;DHT22;11606;45.404;12.148;2022-07-17T11:44:44;31.60;74.80
22878;DHT22;11606;45.404;12.148;2022-07-17T11:47:11;31.50;75.70
22878;DHT22;11606;45.404;12.148;2022-07-17T11:49:39;31.40;76.30
22878;DHT22;11606;45.404;12.148;2022-07-17T11:52:21;31.50;75.90
22878;DHT22;11606;45.404;12.148;2022-07-17T11:54:56;31.60;76.10
22878;DHT22;11606;45.404;12.148;2022-07-17T11:57:26;31.50;74.80
22878;DHT22;11606;45.404;12.148;2022-07-17T11:59:52;31.40;74.80
22878;DHT22;11606;45.404;12.148;2022-07-17T12:02:21;31.30;76.90
22878;DHT22;11606;45.404;12.148;2022-07-17T12:05:08;31.30;76.20
22878;DHT22;11606;45.404;12.148;2022-07-17T12:07:53;31.40;74.50
22878;DHT22;11606;45.404;12.148;2022-07-17T12:10:23;31.30;73.90
22878;DHT22;11606;45.404;12.148;2022-07-17T12:15:46;31.10;73.60
22878;DHT22;11606;45.404;12.148;2022-07-17T12:18:28;31.10;74.80
22878;DHT22;11606;45.404;12.148;2022-07-17T12:21:03;31.00;74.10
22878;DHT22;11606;45.404;12.148;2022-07-17T12:23:32;31.00;74.70
22878;DHT22;11606;45.404;12.148;2022-07-17T12:26:12;30.90;75.60
22878;DHT22;11606;45.404;12.148;2022-07-17T12:28:41;30.90;74.80
22878;DHT22;11606;45.404;12.148;2022-07-17T12:31:13;31.00;75.60
22878;DHT22;11606;45.404;12.148;2022-07-17T12:33:40;30.90;74.90
22878;DHT22;11606;45.404;12.148;2022-07-17T12:36:06;30.80;73.70
22878;DHT22;11606;45.404;12.148;2022-07-17T12:38:32;30.90;74.90
22878;DHT22;11606;45.404;12.148;2022-07-17T12:40:58;30.90;74.40
22878;DHT22;11606;45.404;12.148;2022-07-17T12:43:24;30.80;73.70
22878;DHT22;11606;45.404;12.148;2022-07-17T12:45:50;30.90;73.60
22878;DHT22;11606;45.404;12.148;2022-07-17T12:48:16;30.80;73.50
22878;DHT22;11606;45.404;12.148;2022-07-17T12:50:42;30.80;75.50
22878;DHT22;11606;45.404;12.148;2022-07-17T12:53:08;30.80;74.70
22878;DHT22;11606;45.404;12.148;2022-07-17T12:55:34;30.80;76.10
22878;DHT22;11606;45.404;12.148;2022-07-17T12:58:03;31.00;76.60
22878;DHT22;11606;45.404;12.148;2022-07-17T13:00:29;31.10;76.00
22878;DHT22;11606;45.404;12.148;2022-07-17T13:02:55;31.00;76.10
22878;DHT22;11606;45.404;12.148;2022-07-17T13:05:21;31.10;77.40
22878;DHT22;11606;45.404;12.148;2022-07-17T13:07:48;31.20;75.80
22878;DHT22;11606;45.404;12.148;2022-07-17T13:10:15;31.20;74.30
22878;DHT22;11606;45.404;12.148;2022-07-17T13:12:41;31.20;75.70
22878;DHT22;11606;45.404;12.148;2022-07-17T13:15:07;31.10;76.90
22878;DHT22;11606;45.404;12.148;2022-07-17T13:17:34;31.20;76.40
22878;DHT22;11606;45.404;12.148;2022-07-17T13:20:02;31.20;74.70
22878;DHT22;11606;45.404;12.148;2022-07-17T13:22:28;31.30;74.40
22878;DHT22;11606;45.404;12.148;2022-07-17T13:24:54;31.30;75.50
22878;DHT22;11606;45.404;12.148;2022-07-17T13:27:20;31.30;75.40
22878;DHT22;11606;45.404;12.148;2022-07-17T13:29:46;31.30;74.30
22878;DHT22;11606;45.404;12.148;2022-07-17T13:32:12;31.30;74.60
22878;DHT22;11606;45.404;12.148;2022-07-17T13:34:38;31.10;74.80
22878;DHT22;11606;45.404;12.148;2022-07-17T13:37:05;31.10;73.80
22878;DHT22;11606;45.404;12.148;2022-07-17T13:39:30;31.10;76.10
22878;DHT22;11606;45.404;12.148;2022-07-17T13:41:56;31.20;76.30
22878;DHT22;11606;45.404;12.148;2022-07-17T13:44:22;31.10;75.10
22878;DHT22;11606;45.404;12.148;2022-07-17T13:46:48;31.00;75.20
22878;DHT22;11606;45.404;12.148;2022-07-17T13:49:14;31.10;75.80
22878;DHT22;11606;45.404;12.148;2022-07-17T13:51:40;31.10;74.80
22878;DHT22;11606;45.404;12.148;2022-07-17T13:54:06;30.90;73.50
22878;DHT22;11606;45.404;12.148;2022-07-17T13:56:33;30.80;74.50
22878;DHT22;11606;45.404;12.148;2022-07-17T13:58:59;30.70;78.00
22878;DHT22;11606;45.404;12.148;2022-07-17T14:01:27;30.70;77.60
22878;DHT22;11606;45.404;12.148;2022-07-17T14:03:53;30.60;77.60
22878;DHT22;11606;45.404;12.148;2022-07-17T14:06:19;30.60;77.60
22878;DHT22;11606;45.404;12.148;2022-07-17T14:08:45;30.60;77.30
22878;DHT22;11606;45.404;12.148;2022-07-17T14:11:11;30.80;76.80
22878;DHT22;11606;45.404;12.148;2022-07-17T14:13:38;30.90;77.00
22878;DHT22;11606;45.404;12.148;2022-07-17T14:16:04;31.00;76.70
22878;DHT22;11606;45.404;12.148;2022-07-17T14:18:30;31.10;76.50
22878;DHT22;11606;45.404;12.148;2022-07-17T14:20:56;31.10;76.40
22878;DHT22;11606;45.404;12.148;2022-07-17T14:23:24;31.20;76.80
22878;DHT22;11606;45.404;12.148;2022-07-17T14:25:52;31.10;75.80
22878;DHT22;11606;45.404;12.148;2022-07-17T14:28:18;31.00;75.70
22878;DHT22;11606;45.404;12.148;2022-07-17T14:30:44;30.90;75.90
22878;DHT22;11606;45.404;12.148;2022-07-17T14:33:10;30.80;75.80
22878;DHT22;11606;45.404;12.148;2022-07-17T14:35:36;30.80;76.80
22878;DHT22;11606;45.404;12.148;2022-07-17T14:38:03;30.80;77.10
22878;DHT22;11606;45.404;12.148;2022-07-17T14:40:32;30.60;77.40
22878;DHT22;11606;45.404;12.148;2022-07-17T14:42:57;30.80;76.50
22878;DHT22;11606;45.404;12.148;2022-07-17T14:45:23;30.70;76.90
22878;DHT22;11606;45.404;12.148;2022-07-17T14:47:49;30.70;79.00
22878;DHT22;11606;45.404;12.148;2022-07-17T14:50:15;30.80;78.20
22878;DHT22;11606;45.404;12.148;2022-07-17T14:52:41;30.90;78.40
22878;DHT22;11606;45.404;12.148;2022-07-17T14:55:08;30.90;78.30
22878;DHT22;11606;45.404;12.148;2022-07-17T14:57:33;30.90;78.00
22878;DHT22;11606;45.404;12.148;2022-07-17T14:59:59;31.00;77.90
